sensor_id;sensor_type;location;lat;lon;timestamp;pressure;altitude;pressure_sealevel;temperature;humidity
29215;BME280;16252;49.816;7.964;2023-07-16T00:01:30;99647.19;;;22.35;68.91
29215;BME280;16252;49.816;7.964;2023-07-16T00:03:55;99670.09;;;22.41;68.29
29215;BME280;16252;49.816;7.964;2023-07-16T00:06:20;99647.28;;;22.14;68.27
29215;BME280;16252;49.816;7.964;2023-07-16T00:08:46;99675.44;;;22.27;67.70
29215;BME280;16252;49.816;7.964;2023-07-16T00:11:11;99646.78;;;22.03;68.25
29215;BME280;16252;49.816;7.964;2023-07-16T00:13:36;99673.63;;;22.06;68.30
29215;BME280;16252;49.816;7.964;2023-07-16T00:16:02;99642.28;;;21.89;68.94
29215;BME280;16252;49.816;7.964;2023-07-16T00:18:28;99637.00;;;21.81;68.82
29215;BME280;16252;49.816;7.964;2023-07-16T00:20:54;99670.41;;;21.96;68.52
29215;BME280;16252;49.816;7.964;2023-07-16T00:23:19;99665.13;;;21.88;68.79
29215;BME280;16252;49.816;7.964;2023-07-16T00:25:44;99664.66;;;21.84;68.51
29215;BME280;16252;49.816;7.964;2023-07-16T00:28:10;99665.00;;;21.75;68.84
29215;BME280;16252;49.816;7.964;2023-07-16T00:30:38;99687.50;;;21.83;68.61
29215;BME280;16252;49.816;7.964;2023-07-16T00:33:03;99693.59;;;21.85;69.07
29215;BME280;16252;49.816;7.964;2023-07-16T00:35:28;99680.34;;;21.82;68.93
29215;BME280;16252;49.816;7.964;2023-07-16T00:37:53;99672.91;;;21.91;68.69
29215;BME280;16252;49.816;7.964;2023-07-16T00:40:19;99652.50;;;21.80;68.75
29215;BME280;16252;49.816;7.964;2023-07-16T00:42:44;99669.47;;;21.82;68.71
29215;BME280;16252;49.816;7.964;2023-07-16T00:45:12;99676.03;;;21.88;68.68
29215;BME280;16252;49.816;7.964;2023-07-16T00:47:42;99643.78;;;21.63;68.70
29215;BME280;16252;49.816;7.964;2023-07-16T00:50:10;99693.44;;;21.94;68.74
29215;BME280;16252;49.816;7.964;2023-07-16T00:52:36;99681.31;;;21.96;68.90
29215;BME280;16252;49.816;7.964;2023-07-16T00:55:02;99656.50;;;21.84;69.46
29215;BME280;16252;49.816;7.964;2023-07-16T00:57:28;99667.19;;;21.86;68.95
29215;BME280;16252;49.816;7.964;2023-07-16T00:59:54;99664.88;;;21.83;68.29
29215;BME280;16252;49.816;7.964;2023-07-16T01:02:19;99691.56;;;21.94;68.35
29215;BME280;16252;49.816;7.964;2023-07-16T01:04:45;99700.38;;;21.96;69.19
29215;BME280;16252;49.816;7.964;2023-07-16T01:07:11;99705.88;;;22.03;68.60
29215;BME280;16252;49.816;7.964;2023-07-16T01:09:41;99725.63;;;22.12;68.16
29215;BME280;16252;49.816;7.964;2023-07-16T01:12:07;99727.94;;;22.08;68.50
29215;BME280;16252;49.816;7.964;2023-07-16T01:14:34;99708.75;;;21.95;67.74
29215;BME280;16252;49.816;7.964;2023-07-16T01:17:03;99717.56;;;21.97;67.04
29215;BME280;16252;49.816;7.964;2023-07-16T01:19:28;99733.06;;;21.96;67.18
29215;BME280;16252;49.816;7.964;2023-07-16T01:22:22;99711.69;;;21.93;66.42
29215;BME280;16252;49.816;7.964;2023-07-16T01:25:39;99727.78;;;21.88;66.57
29215;BME280;16252;49.816;7.964;2023-07-16T01:30:32;99722.00;;;21.76;66.65
29215;BME280;16252;49.816;7.964;2023-07-16T01:32:58;99714.41;;;21.72;66.98
29215;BME280;16252;49.816;7.964;2023-07-16T01:35:24;99741.50;;;21.80;67.29
29215;BME280;16252;49.816;7.964;2023-07-16T01:37:51;99734.78;;;21.76;66.73
29215;BME280;16252;49.816;7.964;2023-07-16T01:40:16;99717.88;;;21.59;66.62
29215;BME280;16252;49.816;7.964;2023-07-16T01:42:41;99751.56;;;21.79;66.64
29215;BME280;16252;49.816;7.964;2023-07-16T01:45:07;99748.78;;;21.73;66.76
29215;BME280;16252;49.816;7.964;2023-07-16T01:47:40;99758.63;;;21.74;66.66
29215;BME280;16252;49.816;7.964;2023-07-16T01:50:09;99768.03;;;21.71;66.97
29215;BME280;16252;49.816;7.964;2023-07-16T01:52:35;99716.25;;;21.43;67.33
29215;BME280;16252;49.816;7.964;2023-07-16T01:55:00;99753.72;;;21.62;67.21
29215;BME280;16252;49.816;7.964;2023-07-16T01:57:25;99765.91;;;21.67;66.75
29215;BME280;16252;49.816;7.964;2023-07-16T01:59:50;99767.53;;;21.61;67.09
29215;BME280;16252;49.816;7.964;2023-07-16T02:02:16;99757.88;;;21.58;67.42
29215;BME280;16252;49.816;7.964;2023-07-16T02:04:41;99772.56;;;21.64;67.28
29215;BME280;16252;49.816;7.964;2023-07-16T02:07:06;99749.44;;;21.53;68.06
29215;BME280;16252;49.816;7.964;2023-07-16T02:09:33;99778.50;;;21.68;67.93
29215;BME280;16252;49.816;7.964;2023-07-16T02:12:00;99773.22;;;21.66;68.31
29215;BME280;16252;49.816;7.964;2023-07-16T02:14:25;99779.59;;;21.73;68.07
29215;BME280;16252;49.816;7.964;2023-07-16T02:16:51;99773.03;;;21.68;67.76
29215;BME280;16252;49.816;7.964;2023-07-16T02:19:18;99767.34;;;21.62;67.89
29215;BME280;16252;49.816;7.964;2023-07-16T02:21:43;99767.72;;;21.59;67.86
29215;BME280;16252;49.816;7.964;2023-07-16T02:24:09;99769.09;;;21.70;68.00
29215;BME280;16252;49.816;7.964;2023-07-16T02:26:34;99784.81;;;21.75;68.24
29215;BME280;16252;49.816;7.964;2023-07-16T02:28:59;99773.41;;;21.64;68.08
29215;BME280;16252;49.816;7.964;2023-07-16T02:31:25;99765.63;;;21.61;67.97
29215;BME280;16252;49.816;7.964;2023-07-16T02:33:50;99782.72;;;21.70;68.11
29215;BME280;16252;49.816;7.964;2023-07-16T02:36:15;99790.25;;;21.75;67.55
29215;BME280;16252;49.816;7.964;2023-07-16T02:38:40;99787.50;;;21.68;66.75
29215;BME280;16252;49.816;7.964;2023-07-16T02:41:06;99793.78;;;21.69;66.97
29215;BME280;16252;49.816;7.964;2023-07-16T02:43:31;99790.13;;;21.61;67.21
29215;BME280;16252;49.816;7.964;2023-07-16T02:45:56;99795.16;;;21.58;66.55
29215;BME280;16252;49.816;7.964;2023-07-16T02:48:22;99798.03;;;21.56;66.90
29215;BME280;16252;49.816;7.964;2023-07-16T02:50:47;99795.53;;;21.55;66.43
29215;BME280;16252;49.816;7.964;2023-07-16T02:53:13;99817.38;;;21.61;66.26
29215;BME280;16252;49.816;7.964;2023-07-16T02:55:38;99809.91;;;21.49;65.89
29215;BME280;16252;49.816;7.964;2023-07-16T02:58:03;99810.13;;;21.47;66.32
29215;BME280;16252;49.816;7.964;2023-07-16T03:00:32;99794.91;;;21.38;67.31
29215;BME280;16252;49.816;7.964;2023-07-16T03:02:58;99811.69;;;21.41;67.12
29215;BME280;16252;49.816;7.964;2023-07-16T03:05:25;99830.06;;;21.54;66.83
29215;BME280;16252;49.816;7.964;2023-07-16T03:07:51;99818.38;;;21.39;66.79
29215;BME280;16252;49.816;7.964;2023-07-16T03:10:16;99831.03;;;21.47;66.27
29215;BME280;16252;49.816;7.964;2023-07-16T03:12:42;99845.75;;;21.52;65.88
29215;BME280;16252;49.816;7.964;2023-07-16T03:15:07;99839.75;;;21.42;65.49
29215;BME280;16252;49.816;7.964;2023-07-16T03:17:33;99851.69;;;21.41;65.87
29215;BME280;16252;49.816;7.964;2023-07-16T03:19:58;99825.69;;;21.24;65.55
29215;BME280;16252;49.816;7.964;2023-07-16T03:22:23;99864.63;;;21.39;65.46
29215;BME280;16252;49.816;7.964;2023-07-16T03:24:49;99868.53;;;21.36;65.56
29215;BME280;16252;49.816;7.964;2023-07-16T03:27:14;99865.94;;;21.28;65.45
29215;BME280;16252;49.816;7.964;2023-07-16T03:29:39;99859.38;;;21.23;65.43
29215;BME280;16252;49.816;7.964;2023-07-16T03:32:05;99841.03;;;21.10;65.49
29215;BME280;16252;49.816;7.964;2023-07-16T03:34:30;99854.78;;;21.08;65.55
29215;BME280;16252;49.816;7.964;2023-07-16T03:36:55;99847.41;;;21.02;65.33
29215;BME280;16252;49.816;7.964;2023-07-16T03:39:20;99876.44;;;21.16;65.17
29215;BME280;16252;49.816;7.964;2023-07-16T03:41:46;99872.22;;;21.14;65.57
29215;BME280;16252;49.816;7.964;2023-07-16T03:44:11;99872.81;;;21.09;65.22
29215;BME280;16252;49.816;7.964;2023-07-16T03:46:37;99859.13;;;21.03;64.96
29215;BME280;16252;49.816;7.964;2023-07-16T03:49:02;99872.34;;;21.06;65.12
29215;BME280;16252;49.816;7.964;2023-07-16T03:51:27;99855.63;;;20.94;65.62
29215;BME280;16252;49.816;7.964;2023-07-16T03:53:52;99855.63;;;20.94;65.27
29215;BME280;16252;49.816;7.964;2023-07-16T03:56:18;99869.91;;;20.96;65.47
29215;BME280;16252;49.816;7.964;2023-07-16T03:58:43;99867.19;;;20.96;65.97
29215;BME280;16252;49.816;7.964;2023-07-16T04:01:09;99882.56;;;21.04;65.44
29215;BME280;16252;49.816;7.964;2023-07-16T04:03:35;99882.38;;;21.05;65.35
29215;BME280;16252;49.816;7.964;2023-07-16T04:06:04;99880.72;;;21.04;65.20
29215;BME280;16252;49.816;7.964;2023-07-16T04:08:30;99885.88;;;20.99;65.15
29215;BME280;16252;49.816;7.964;2023-07-16T04:10:55;99888.59;;;20.99;64.95
29215;BME280;16252;49.816;7.964;2023-07-16T04:13:20;99859.94;;;20.73;64.89
29215;BME280;16252;49.816;7.964;2023-07-16T04:15:46;99874.03;;;20.77;65.20
29215;BME280;16252;49.816;7.964;2023-07-16T04:18:11;99902.50;;;20.81;64.91
29215;BME280;16252;49.816;7.964;2023-07-16T04:20:36;99919.13;;;20.86;64.69
29215;BME280;16252;49.816;7.964;2023-07-16T04:23:02;99918.84;;;20.81;64.71
29215;BME280;16252;49.816;7.964;2023-07-16T04:25:27;99831.75;;;20.22;65.15
29215;BME280;16252;49.816;7.964;2023-07-16T04:27:52;99917.97;;;20.66;65.18
29215;BME280;16252;49.816;7.964;2023-07-16T04:30:18;99912.13;;;20.54;65.15
29215;BME280;16252;49.816;7.964;2023-07-16T04:32:43;99855.88;;;20.17;65.12
29215;BME280;16252;49.816;7.964;2023-07-16T04:35:08;99876.41;;;20.19;65.19
29215;BME280;16252;49.816;7.964;2023-07-16T04:37:33;99797.03;;;19.71;65.48
29215;BME280;16252;49.816;7.964;2023-07-16T04:39:59;99895.47;;;20.34;65.30
29215;BME280;16252;49.816;7.964;2023-07-16T04:42:24;99921.19;;;20.46;65.38
29215;BME280;16252;49.816;7.964;2023-07-16T04:44:49;99933.03;;;20.53;65.64
29215;BME280;16252;49.816;7.964;2023-07-16T04:47:15;99809.03;;;19.77;65.64
29215;BME280;16252;49.816;7.964;2023-07-16T04:49:40;99834.06;;;19.87;65.55
29215;BME280;16252;49.816;7.964;2023-07-16T04:52:06;99915.03;;;20.29;65.71
29215;BME280;16252;49.816;7.964;2023-07-16T04:54:35;99816.81;;;19.80;65.79
29215;BME280;16252;49.816;7.964;2023-07-16T04:57:01;99942.72;;;20.56;65.68
29215;BME280;16252;49.816;7.964;2023-07-16T04:59:26;99885.59;;;20.18;65.81
29215;BME280;16252;49.816;7.964;2023-07-16T05:01:52;99845.88;;;19.94;65.71
29215;BME280;16252;49.816;7.964;2023-07-16T05:04:17;99859.88;;;20.06;65.46
29215;BME280;16252;49.816;7.964;2023-07-16T05:06:42;99910.56;;;20.37;65.41
29215;BME280;16252;49.816;7.964;2023-07-16T05:09:07;99896.84;;;20.30;65.34
29215;BME280;16252;49.816;7.964;2023-07-16T05:11:33;99958.88;;;20.72;65.05
29215;BME280;16252;49.816;7.964;2023-07-16T05:13:58;99968.91;;;20.72;65.54
29215;BME280;16252;49.816;7.964;2023-07-16T05:16:23;99966.47;;;20.77;65.02
29215;BME280;16252;49.816;7.964;2023-07-16T05:18:49;99884.19;;;20.22;65.16
29215;BME280;16252;49.816;7.964;2023-07-16T05:21:14;99979.31;;;20.83;65.00
29215;BME280;16252;49.816;7.964;2023-07-16T05:23:39;99961.97;;;20.69;65.52
29215;BME280;16252;49.816;7.964;2023-07-16T05:26:04;99903.81;;;20.32;65.09
29215;BME280;16252;49.816;7.964;2023-07-16T05:28:30;99852.03;;;20.11;64.80
29215;BME280;16252;49.816;7.964;2023-07-16T05:31:02;99992.41;;;21.03;64.37
29215;BME280;16252;49.816;7.964;2023-07-16T05:33:27;99935.19;;;20.58;64.09
29215;BME280;16252;49.816;7.964;2023-07-16T05:35:53;99900.53;;;20.37;64.48
29215;BME280;16252;49.816;7.964;2023-07-16T05:38:18;99951.63;;;20.65;64.27
29215;BME280;16252;49.816;7.964;2023-07-16T05:40:44;99995.22;;;20.94;64.38
29215;BME280;16252;49.816;7.964;2023-07-16T05:43:09;99961.59;;;20.72;63.92
29215;BME280;16252;49.816;7.964;2023-07-16T05:45:34;99929.28;;;20.54;63.87
29215;BME280;16252;49.816;7.964;2023-07-16T05:47:59;99874.00;;;20.24;64.04
29215;BME280;16252;49.816;7.964;2023-07-16T05:50:25;99860.78;;;20.21;63.47
29215;BME280;16252;49.816;7.964;2023-07-16T05:52:50;100000.72;;;21.01;63.71
29215;BME280;16252;49.816;7.964;2023-07-16T05:55:16;99896.44;;;20.41;63.43
29215;BME280;16252;49.816;7.964;2023-07-16T05:57:41;99988.56;;;20.97;63.28
29215;BME280;16252;49.816;7.964;2023-07-16T06:00:07;99972.19;;;20.82;63.73
29215;BME280;16252;49.816;7.964;2023-07-16T06:02:33;99939.91;;;20.64;63.53
29215;BME280;16252;49.816;7.964;2023-07-16T06:04:59;99917.25;;;20.49;63.59
29215;BME280;16252;49.816;7.964;2023-07-16T06:07:24;99888.16;;;20.34;63.31
29215;BME280;16252;49.816;7.964;2023-07-16T06:09:49;100035.03;;;21.25;63.47
29215;BME280;16252;49.816;7.964;2023-07-16T06:12:15;99978.69;;;20.96;63.16
29215;BME280;16252;49.816;7.964;2023-07-16T06:14:40;99922.19;;;20.68;63.30
29215;BME280;16252;49.816;7.964;2023-07-16T06:17:05;99965.56;;;20.99;62.69
29215;BME280;16252;49.816;7.964;2023-07-16T06:19:31;100034.69;;;21.43;62.52
29215;BME280;16252;49.816;7.964;2023-07-16T06:21:56;99965.38;;;21.01;62.78
29215;BME280;16252;49.816;7.964;2023-07-16T06:24:21;99974.31;;;21.10;62.13
29215;BME280;16252;49.816;7.964;2023-07-16T06:26:47;99983.88;;;21.20;61.90
29215;BME280;16252;49.816;7.964;2023-07-16T06:29:12;100034.81;;;21.50;62.25
29215;BME280;16252;49.816;7.964;2023-07-16T06:31:38;100029.53;;;21.48;62.18
29215;BME280;16252;49.816;7.964;2023-07-16T06:34:03;99932.72;;;20.86;61.74
29215;BME280;16252;49.816;7.964;2023-07-16T06:36:28;99914.63;;;20.78;61.63
29215;BME280;16252;49.816;7.964;2023-07-16T06:38:54;100016.97;;;21.47;61.28
29215;BME280;16252;49.816;7.964;2023-07-16T06:41:19;99931.44;;;20.97;61.25
29215;BME280;16252;49.816;7.964;2023-07-16T06:43:44;99905.25;;;20.81;61.21
29215;BME280;16252;49.816;7.964;2023-07-16T06:46:10;99965.59;;;21.14;61.13
29215;BME280;16252;49.816;7.964;2023-07-16T06:48:35;100020.25;;;21.57;61.22
29215;BME280;16252;49.816;7.964;2023-07-16T06:51:00;100041.28;;;21.78;60.58
29215;BME280;16252;49.816;7.964;2023-07-16T06:53:26;100028.09;;;21.82;60.46
29215;BME280;16252;49.816;7.964;2023-07-16T06:55:51;99984.66;;;21.59;60.52
29215;BME280;16252;49.816;7.964;2023-07-16T06:58:17;100034.38;;;21.97;60.07
29215;BME280;16252;49.816;7.964;2023-07-16T07:00:42;100040.75;;;22.04;59.76
29215;BME280;16252;49.816;7.964;2023-07-16T07:03:08;100035.41;;;22.11;59.86
29215;BME280;16252;49.816;7.964;2023-07-16T07:05:33;100050.41;;;22.37;59.56
29215;BME280;16252;49.816;7.964;2023-07-16T07:08:01;99974.53;;;22.04;59.27
29215;BME280;16252;49.816;7.964;2023-07-16T07:10:26;99980.97;;;22.18;58.62
29215;BME280;16252;49.816;7.964;2023-07-16T07:12:51;99982.66;;;22.19;58.29
29215;BME280;16252;49.816;7.964;2023-07-16T07:15:17;99958.72;;;22.14;58.43
29215;BME280;16252;49.816;7.964;2023-07-16T07:17:42;100037.69;;;22.65;58.65
29215;BME280;16252;49.816;7.964;2023-07-16T07:20:08;100037.03;;;22.85;57.88
29215;BME280;16252;49.816;7.964;2023-07-16T07:22:33;100027.31;;;22.97;57.90
29215;BME280;16252;49.816;7.964;2023-07-16T07:24:59;100000.72;;;23.06;58.06
29215;BME280;16252;49.816;7.964;2023-07-16T07:27:24;99999.13;;;23.18;57.56
29215;BME280;16252;49.816;7.964;2023-07-16T07:29:49;99915.44;;;22.97;56.94
29215;BME280;16252;49.816;7.964;2023-07-16T07:32:20;100010.19;;;23.73;55.47
29215;BME280;16252;49.816;7.964;2023-07-16T07:34:45;100054.19;;;24.39;56.19
29215;BME280;16252;49.816;7.964;2023-07-16T07:37:11;99944.56;;;24.21;56.01
29215;BME280;16252;49.816;7.964;2023-07-16T07:39:36;100049.44;;;25.55;55.97
29215;BME280;16252;49.816;7.964;2023-07-16T07:42:01;100027.34;;;26.14;54.68
29215;BME280;16252;49.816;7.964;2023-07-16T07:44:26;100034.84;;;26.96;53.36
29215;BME280;16252;49.816;7.964;2023-07-16T07:46:52;99974.16;;;27.29;52.06
29215;BME280;16252;49.816;7.964;2023-07-16T07:49:17;100047.03;;;28.42;51.09
29215;BME280;16252;49.816;7.964;2023-07-16T07:51:42;100036.38;;;29.06;49.95
29215;BME280;16252;49.816;7.964;2023-07-16T07:54:07;100027.28;;;29.53;48.59
29215;BME280;16252;49.816;7.964;2023-07-16T07:56:33;100026.88;;;29.96;46.76
29215;BME280;16252;49.816;7.964;2023-07-16T07:58:58;100028.63;;;30.43;46.18
29215;BME280;16252;49.816;7.964;2023-07-16T08:01:23;100015.47;;;30.79;45.40
29215;BME280;16252;49.816;7.964;2023-07-16T08:03:48;100054.94;;;31.42;44.36
29215;BME280;16252;49.816;7.964;2023-07-16T08:06:14;100057.41;;;31.77;43.94
29215;BME280;16252;49.816;7.964;2023-07-16T08:08:39;100006.94;;;31.70;42.93
29215;BME280;16252;49.816;7.964;2023-07-16T08:11:04;100042.91;;;32.09;42.80
29215;BME280;16252;49.816;7.964;2023-07-16T08:13:30;99971.69;;;31.82;41.70
29215;BME280;16252;49.816;7.964;2023-07-16T08:15:55;99952.03;;;31.79;40.65
29215;BME280;16252;49.816;7.964;2023-07-16T08:18:20;99974.75;;;31.81;40.41
29215;BME280;16252;49.816;7.964;2023-07-16T08:20:46;99923.13;;;31.25;40.44
29215;BME280;16252;49.816;7.964;2023-07-16T08:23:12;99974.06;;;31.13;39.99
29215;BME280;16252;49.816;7.964;2023-07-16T08:25:37;99991.16;;;30.93;40.21
29215;BME280;16252;49.816;7.964;2023-07-16T08:28:02;100072.00;;;31.22;41.60
29215;BME280;16252;49.816;7.964;2023-07-16T08:30:28;100071.47;;;31.20;40.73
29215;BME280;16252;49.816;7.964;2023-07-16T08:32:53;100046.25;;;30.99;39.99
29215;BME280;16252;49.816;7.964;2023-07-16T08:35:18;99949.28;;;30.21;39.91
29215;BME280;16252;49.816;7.964;2023-07-16T08:37:45;100007.25;;;30.50;39.63
29215;BME280;16252;49.816;7.964;2023-07-16T08:40:14;99973.28;;;30.21;39.84
29215;BME280;16252;49.816;7.964;2023-07-16T08:42:40;100083.34;;;30.75;39.42
29215;BME280;16252;49.816;7.964;2023-07-16T08:45:12;100069.34;;;30.64;40.02
29215;BME280;16252;49.816;7.964;2023-07-16T08:47:39;100065.09;;;30.74;40.33
29215;BME280;16252;49.816;7.964;2023-07-16T08:50:05;100062.66;;;31.06;39.86
29215;BME280;16252;49.816;7.964;2023-07-16T08:52:30;99984.38;;;31.00;39.79
29215;BME280;16252;49.816;7.964;2023-07-16T08:54:56;100081.97;;;32.12;39.60
29215;BME280;16252;49.816;7.964;2023-07-16T08:57:22;100014.94;;;32.10;38.15
29215;BME280;16252;49.816;7.964;2023-07-16T08:59:49;100013.81;;;32.33;37.63
29215;BME280;16252;49.816;7.964;2023-07-16T09:02:18;100017.19;;;32.63;38.35
29215;BME280;16252;49.816;7.964;2023-07-16T09:04:47;100059.97;;;33.04;36.46
29215;BME280;16252;49.816;7.964;2023-07-16T09:07:12;100009.44;;;32.59;36.37
29215;BME280;16252;49.816;7.964;2023-07-16T09:09:38;99957.63;;;32.33;35.86
29215;BME280;16252;49.816;7.964;2023-07-16T09:12:03;100041.56;;;32.93;35.78
29215;BME280;16252;49.816;7.964;2023-07-16T09:14:29;100047.09;;;33.20;35.64
29215;BME280;16252;49.816;7.964;2023-07-16T09:16:54;99983.28;;;33.10;35.19
29215;BME280;16252;49.816;7.964;2023-07-16T09:19:20;100068.91;;;33.86;34.59
29215;BME280;16252;49.816;7.964;2023-07-16T09:21:49;100089.22;;;33.97;33.79
29215;BME280;16252;49.816;7.964;2023-07-16T09:24:15;100100.91;;;34.04;39.75
29215;BME280;16252;49.816;7.964;2023-07-16T09:26:53;100084.81;;;34.06;36.99
29215;BME280;16252;49.816;7.964;2023-07-16T09:29:19;100011.34;;;33.61;34.21
29215;BME280;16252;49.816;7.964;2023-07-16T09:31:59;100093.03;;;34.43;36.28
29215;BME280;16252;49.816;7.964;2023-07-16T09:34:29;100085.53;;;34.39;34.08
29215;BME280;16252;49.816;7.964;2023-07-16T09:36:55;100080.81;;;34.39;32.71
29215;BME280;16252;49.816;7.964;2023-07-16T09:39:22;100066.59;;;34.30;33.14
29215;BME280;16252;49.816;7.964;2023-07-16T09:41:48;100091.66;;;34.56;32.75
29215;BME280;16252;49.816;7.964;2023-07-16T09:44:14;100068.53;;;34.30;32.04
29215;BME280;16252;49.816;7.964;2023-07-16T09:46:40;100024.47;;;33.81;31.41
29215;BME280;16252;49.816;7.964;2023-07-16T09:49:06;100007.00;;;33.33;31.86
29215;BME280;16252;49.816;7.964;2023-07-16T09:51:34;100084.44;;;33.50;31.48
29215;BME280;16252;49.816;7.964;2023-07-16T09:54:04;100019.44;;;32.66;32.37
29215;BME280;16252;49.816;7.964;2023-07-16T09:56:35;100091.47;;;32.66;32.54
29215;BME280;16252;49.816;7.964;2023-07-16T09:59:01;100067.59;;;32.15;32.40
29215;BME280;16252;49.816;7.964;2023-07-16T10:01:28;99986.41;;;31.27;32.43
29215;BME280;16252;49.816;7.964;2023-07-16T10:03:53;100072.63;;;31.58;32.71
29215;BME280;16252;49.816;7.964;2023-07-16T10:06:19;99996.53;;;30.82;32.14
29215;BME280;16252;49.816;7.964;2023-07-16T10:08:50;100093.22;;;31.33;32.94
29215;BME280;16252;49.816;7.964;2023-07-16T10:11:16;100080.81;;;31.19;31.90
29215;BME280;16252;49.816;7.964;2023-07-16T10:13:42;100080.13;;;31.12;32.03
29215;BME280;16252;49.816;7.964;2023-07-16T10:16:07;100016.06;;;30.64;32.30
29215;BME280;16252;49.816;7.964;2023-07-16T10:18:35;100070.84;;;31.01;31.97
29215;BME280;16252;49.816;7.964;2023-07-16T10:23:40;100059.63;;;30.91;33.08
29215;BME280;16252;49.816;7.964;2023-07-16T10:26:06;100086.13;;;30.75;31.61
29215;BME280;16252;49.816;7.964;2023-07-16T10:28:33;100064.63;;;30.48;31.87
29215;BME280;16252;49.816;7.964;2023-07-16T10:30:58;100079.91;;;30.39;31.94
29215;BME280;16252;49.816;7.964;2023-07-16T10:33:24;100076.13;;;30.16;31.81
29215;BME280;16252;49.816;7.964;2023-07-16T10:35:49;100076.97;;;30.05;32.46
29215;BME280;16252;49.816;7.964;2023-07-16T10:38:14;100058.69;;;29.75;32.23
29215;BME280;16252;49.816;7.964;2023-07-16T10:40:44;100057.00;;;29.63;33.03
29215;BME280;16252;49.816;7.964;2023-07-16T10:43:09;100070.28;;;29.54;32.88
29215;BME280;16252;49.816;7.964;2023-07-16T10:45:35;100050.66;;;29.38;32.86
29215;BME280;16252;49.816;7.964;2023-07-16T10:48:01;100057.25;;;29.37;32.76
29215;BME280;16252;49.816;7.964;2023-07-16T10:50:26;100053.03;;;29.23;32.96
29215;BME280;16252;49.816;7.964;2023-07-16T10:52:52;100051.72;;;29.14;32.74
29215;BME280;16252;49.816;7.964;2023-07-16T10:55:19;100074.22;;;29.11;33.18
29215;BME280;16252;49.816;7.964;2023-07-16T10:57:46;100072.06;;;29.13;33.25
29215;BME280;16252;49.816;7.964;2023-07-16T11:00:12;100056.94;;;28.92;33.09
29215;BME280;16252;49.816;7.964;2023-07-16T11:02:39;100068.22;;;29.02;33.06
29215;BME280;16252;49.816;7.964;2023-07-16T11:05:12;100069.38;;;28.94;33.17
29215;BME280;16252;49.816;7.964;2023-07-16T11:07:37;100049.72;;;28.79;33.85
29215;BME280;16252;49.816;7.964;2023-07-16T11:10:03;100062.31;;;28.87;33.50
29215;BME280;16252;49.816;7.964;2023-07-16T11:12:29;100048.75;;;28.85;33.37
29215;BME280;16252;49.816;7.964;2023-07-16T11:14:55;100047.69;;;28.86;33.48
29215;BME280;16252;49.816;7.964;2023-07-16T11:17:22;100064.84;;;29.00;33.38
29215;BME280;16252;49.816;7.964;2023-07-16T11:19:50;100061.59;;;29.03;32.90
29215;BME280;16252;49.816;7.964;2023-07-16T11:22:15;100074.78;;;29.01;32.69
29215;BME280;16252;49.816;7.964;2023-07-16T11:24:50;100049.03;;;28.95;33.50
29215;BME280;16252;49.816;7.964;2023-07-16T11:27:17;100037.16;;;28.83;32.83
29215;BME280;16252;49.816;7.964;2023-07-16T11:29:52;100073.63;;;29.09;33.48
29215;BME280;16252;49.816;7.964;2023-07-16T11:32:33;100054.81;;;29.06;33.82
29215;BME280;16252;49.816;7.964;2023-07-16T11:35:00;100039.66;;;28.96;32.98
29215;BME280;16252;49.816;7.964;2023-07-16T11:37:26;100052.38;;;28.98;32.60
29215;BME280;16252;49.816;7.964;2023-07-16T11:40:01;100040.06;;;29.00;33.26
29215;BME280;16252;49.816;7.964;2023-07-16T11:42:33;100040.97;;;28.94;32.50
29215;BME280;16252;49.816;7.964;2023-07-16T11:44:59;100055.75;;;29.00;32.64
29215;BME280;16252;49.816;7.964;2023-07-16T11:47:25;100049.84;;;28.96;32.54
29215;BME280;16252;49.816;7.964;2023-07-16T11:49:51;100034.28;;;28.90;32.87
29215;BME280;16252;49.816;7.964;2023-07-16T11:52:25;100059.69;;;29.04;32.68
29215;BME280;16252;49.816;7.964;2023-07-16T11:54:52;100038.97;;;28.89;32.28
29215;BME280;16252;49.816;7.964;2023-07-16T11:57:17;100052.25;;;29.04;32.27
29215;BME280;16252;49.816;7.964;2023-07-16T11:59:42;100045.19;;;28.96;32.36
29215;BME280;16252;49.816;7.964;2023-07-16T12:02:08;100046.19;;;29.02;32.21
29215;BME280;16252;49.816;7.964;2023-07-16T12:04:34;100040.97;;;28.94;32.32
29215;BME280;16252;49.816;7.964;2023-07-16T12:06:59;100028.78;;;28.90;32.65
29215;BME280;16252;49.816;7.964;2023-07-16T12:09:24;100046.69;;;29.11;32.11
29215;BME280;16252;49.816;7.964;2023-07-16T12:11:49;100025.31;;;28.94;32.24
29215;BME280;16252;49.816;7.964;2023-07-16T12:14:15;100044.19;;;29.09;32.28
29215;BME280;16252;49.816;7.964;2023-07-16T12:16:40;100028.66;;;28.96;32.01
29215;BME280;16252;49.816;7.964;2023-07-16T12:19:08;100048.59;;;29.10;32.28
29215;BME280;16252;49.816;7.964;2023-07-16T12:21:33;100048.47;;;29.05;32.39
29215;BME280;16252;49.816;7.964;2023-07-16T12:23:59;100033.38;;;29.08;32.17
29215;BME280;16252;49.816;7.964;2023-07-16T12:26:24;100038.41;;;29.11;32.08
29215;BME280;16252;49.816;7.964;2023-07-16T12:28:49;100030.03;;;29.06;31.65
29215;BME280;16252;49.816;7.964;2023-07-16T12:31:14;100032.56;;;29.07;31.73
29215;BME280;16252;49.816;7.964;2023-07-16T12:33:41;100021.00;;;28.99;31.49
29215;BME280;16252;49.816;7.964;2023-07-16T12:36:06;100008.06;;;28.87;31.57
29215;BME280;16252;49.816;7.964;2023-07-16T12:38:32;100030.47;;;29.03;31.60
29215;BME280;16252;49.816;7.964;2023-07-16T12:40:57;100024.59;;;28.99;31.60
29215;BME280;16252;49.816;7.964;2023-07-16T12:43:22;100025.56;;;28.93;31.44
29215;BME280;16252;49.816;7.964;2023-07-16T12:45:48;100020.50;;;28.78;31.34
29215;BME280;16252;49.816;7.964;2023-07-16T12:48:13;100037.75;;;28.85;31.57
29215;BME280;16252;49.816;7.964;2023-07-16T12:50:38;100030.91;;;28.76;31.30
29215;BME280;16252;49.816;7.964;2023-07-16T12:53:03;100000.34;;;28.54;31.76
29215;BME280;16252;49.816;7.964;2023-07-16T12:55:29;100018.44;;;28.62;31.78